Time;durP1;ratioP1;P1;durP2;ratioP2;P2;SDS_P1;SDS_P2;PMS_P1;PMS_P2;Temp;Humidity;BMP_temperature;BMP_pressure;BME280_temperature;BME280_humidity;BME280_pressure;Samples;Min_cycle;Max_cycle;Signal;HPM_P1;HPM_P2
2022/08/25 14:56:07;;;;;;;230.00;207.35;;;;;;;31.62;28.62;99981.28;4775453;27;8415047;-83
2022/08/25 14:58:32;;;;;;;645.78;593.80;;;;;;;31.66;28.29;99983.53;5059309;28;20048;-78
2022/08/25 15:00:58;;;;;;;931.03;853.53;;;;;;;31.56;28.50;99985.41;5064964;28;22604;-77
2022/08/25 15:03:35;;;;;;;833.45;767.67;;;;;;;31.63;28.45;99989.28;5059315;28;20036;-76
2022/08/25 15:06:00;;;;;;;863.03;794.30;;;;;;;31.55;28.32;99973.69;5043676;28;20055;-77
2022/08/25 15:11:10;;;;;;;885.53;814.08;;;;;;;31.72;27.33;99953.09;5061816;28;20047;-78
2022/08/25 15:13:35;;;;;;;985.50;901.38;;;;;;;31.74;27.58;99983.66;5042395;28;20044;-78
2022/08/25 15:16:01;;;;;;;;;;;;;;;31.77;27.84;99963.50;5041370;28;20101;-76
2022/08/25 15:18:27;;;;;;;;;;;;;;;31.84;27.82;99978.19;5058653;28;19919;-74
2022/08/25 15:20:52;;;;;;;;;;;;;;;31.80;27.56;99975.94;5062362;28;20031;-74
2022/08/25 15:23:18;;;;;;;;;;;;;;;31.81;27.18;99981.19;5057501;28;19931;-74
2022/08/25 15:25:44;;;;;;;;;;;;;;;31.62;27.21;99968.56;5059815;28;20484;-77
2022/08/25 15:28:09;;;;;;;;;;;;;;;31.77;27.43;99974.34;5040662;28;20283;-76
2022/08/25 15:30:35;;;;;;;;;;;;;;;31.62;27.73;99973.97;5063988;28;19927;-76
2022/08/25 15:33:00;;;;;;;;;;;;;;;31.60;27.44;99983.25;5060292;28;20014;-77
2022/08/25 15:35:26;;;;;;;;;;;;;;;31.73;27.46;99983.81;5062148;28;22023;-76
2022/08/25 15:37:51;;;;;;;;;;;;;;;31.58;27.96;99980.69;5062140;28;20027;-77
2022/08/25 15:40:17;;;;;;;;;;;;;;;31.59;27.96;99976.16;5063276;28;19972;-77
2022/08/25 15:42:42;;;;;;;;;;;;;;;31.74;27.85;99980.09;5058172;28;19924;-74
2022/08/25 15:45:08;;;;;;;;;;;;;;;31.62;28.26;99973.97;5058646;28;20024;-78
2022/08/25 15:47:33;;;;;;;;;;;;;;;31.67;28.06;99977.09;5064356;28;19989;-76
2022/08/25 15:50:02;;;;;;;;;;;;;;;31.78;28.17;99976.09;5058194;28;20707;-74
2022/08/25 15:52:27;;;;;;;;;;;;;;;31.85;27.72;99981.78;5060833;28;19920;-77
2022/08/25 15:54:52;;;;;;;;;;;;;;;31.45;28.62;99980.16;5050466;28;22466;-78
2022/08/25 15:57:18;;;;;;;;;;;;;;;31.40;27.86;99976.97;5043273;28;20039;-75
2022/08/25 15:59:43;;;;;;;;;;;;;;;31.69;27.89;99977.81;5043213;28;19925;-75
2022/08/25 16:02:08;;;;;;;;;;;;;;;31.61;28.51;99980.41;5042636;28;20955;-75
2022/08/25 16:04:34;;;;;;;;;;;;;;;31.30;28.61;99979.69;5042848;28;19934;-75
2022/08/25 16:07:00;;;;;;;;;;;;;;;31.53;28.75;99980.28;5027904;28;19956;-81
2022/08/25 16:09:25;;;;;;;;;;;;;;;31.56;28.20;99977.25;5027023;28;19916;-76
2022/08/25 16:11:51;;;;;;;;;;;;;;;31.63;28.22;99981.13;5031318;28;20399;-74
2022/08/25 16:14:17;;;;;;;;;;;;;;;31.16;29.10;99981.00;5031838;28;19924;-75
2022/08/25 16:16:42;;;;;;;;;;;;;;;31.30;28.68;99988.72;5028760;28;20391;-76
2022/08/25 16:19:07;;;;;;;;;;;;;;;31.12;29.07;99979.59;5027783;28;20402;-79
2022/08/25 16:21:35;;;;;;;;;;;;;;;31.07;29.42;99980.03;5028037;28;19924;-73
2022/08/25 16:24:02;;;;;;;;;;;;;;;31.07;29.36;99980.03;5030298;28;19920;-84
2022/08/25 16:26:28;;;;;;;;;;;;;;;31.06;29.22;99985.56;5031419;28;20407;-74
2022/08/25 16:28:53;;;;;;;;;;;;;;;30.99;29.75;99974.44;5028891;28;19940;-81
2022/08/25 16:31:19;;;;;;;;;;;;;;;30.91;30.06;99979.72;5031377;28;19925;-78
2022/08/25 16:33:45;;;;;;;;;;;;;;;30.78;29.77;99977.25;5027897;28;20051;-75
2022/08/25 16:36:12;;;;;;;;;;;;;;;30.65;30.21;99971.25;5025075;28;20069;-75
2022/08/25 16:38:40;;;;;;;;;;;;;;;30.79;30.25;99970.84;5047467;28;19939;-84
2022/08/25 16:41:06;;;;;;;;;;;;;;;30.66;30.37;99978.38;5049272;28;19924;-74
2022/08/25 16:43:31;;;;;;;;;;;;;;;30.61;30.64;99973.38;5048432;28;19924;-77
2022/08/25 16:45:57;;;;;;;;;;;;;;;30.40;31.02;99978.03;5038478;28;19925;-79
2022/08/25 16:48:23;;;;;;;;;;;;;;;30.53;30.88;99978.63;5045840;28;20445;-81
2022/08/25 16:50:48;;;;;;;;;;;;;;;30.50;31.33;99985.19;5045061;28;19936;-85
2022/08/25 16:56:01;;;;;;;;;;;;;;;30.49;31.19;99985.34;5020060;28;19931;-76
2022/08/25 16:58:26;;;;;;;;;;;;;;;30.37;31.71;99981.00;5026073;28;20269;-77
2022/08/25 17:00:51;;;;;;;;;;;;;;;30.31;31.89;99981.56;5026659;28;19915;-77
2022/08/25 17:03:17;;;;;;;;;;;;;;;30.02;32.48;99980.44;5026386;28;19921;-74
2022/08/25 17:05:42;;;;;;;;;;;;;;;29.92;32.87;99971.41;5019557;28;20122;-74
2022/08/25 17:10:51;;;;;;;;;;;;;;;29.98;33.08;99980.84;5027902;28;19935;-83
2022/08/25 17:13:16;;;;;;;;;;;;;;;30.01;33.26;99973.28;5024772;28;19963;-83
2022/08/25 17:15:43;;;;;;;;;;;;;;;29.79;33.48;99973.50;5017863;28;19916;-80
2022/08/25 17:18:09;;;;;;;;;;;;;;;29.85;33.13;99971.13;5043230;28;19924;-76
2022/08/25 17:20:37;;;;;;;;;;;;;;;29.48;33.83;99975.25;5049768;28;19928;-74
2022/08/25 17:23:02;;;;;;;;;;;;;;;29.60;33.60;99977.75;5046457;28;19928;-74
2022/08/25 17:25:27;;;;;;;;;;;;;;;29.68;33.58;99974.41;5051436;28;19986;-75
2022/08/25 17:27:53;;;;;;;;;;;;;;;29.72;33.40;99986.69;5044744;28;20069;-78
2022/08/25 17:30:18;;;;;;;;;;;;;;;29.59;33.59;99983.28;5044860;28;19916;-84
2022/08/25 17:32:44;;;;;;;;;;;;;;;29.52;34.01;99976.72;5048505;28;19947;-84
2022/08/25 17:35:09;;;;;;;;;;;;;;;29.39;33.86;99985.88;5045110;28;19924;-76
2022/08/25 17:37:36;;;;;;;;;;;;;;;29.58;33.62;99997.81;5050527;28;19928;-86
2022/08/25 17:40:03;;;;;;;;;;;;;;;29.43;33.72;99989.16;5030364;28;20002;-77
2022/08/25 17:42:30;;;;;;;;;;;;;;;29.30;34.26;99993.94;5016297;28;19946;-75
2022/08/25 17:44:55;;;;;;;;;;;;;;;29.50;33.83;99994.91;5021189;28;19928;-80
2022/08/25 17:47:21;;;;;;;;;;;;;;;29.46;33.89;99995.19;5024924;28;19925;-77
2022/08/25 17:49:46;;;;;;;;;;;;;;;29.34;33.88;100003.50;5047385;28;20058;-82
2022/08/25 17:52:12;;;;;;;;;;;;;;;29.21;34.29;99999.09;5046602;28;19924;-82
2022/08/25 17:54:37;;;;;;;;;;;;;;;29.23;34.33;99999.84;5034595;28;19963;-85
2022/08/25 17:57:03;;;;;;;;;;;;;;;29.08;34.51;99994.88;5014908;28;19921;-79
2022/08/25 17:59:29;;;;;;;;;;;;;;;29.28;34.36;99993.19;4992413;28;20000;-76
2022/08/25 18:01:54;;;;;;;;;;;;;;;29.00;34.96;100001.75;5001381;28;19928;-76
2022/08/25 18:04:21;;;;;;;;;;;;;;;29.04;34.66;100002.34;4991050;28;20819;-74
2022/08/25 18:06:47;;;;;;;;;;;;;;;29.15;34.40;100002.34;5010715;28;19921;-76
2022/08/25 18:09:14;;;;;;;;;;;;;;;29.03;34.47;100004.22;5009576;28;19921;-87
2022/08/25 18:11:40;;;;;;;;;;;;;;;29.14;34.58;100002.47;4991311;28;19965;-85
2022/08/25 18:14:05;;;;;;;;;;;;;;;29.00;34.73;100012.56;4983430;28;20272;-86
2022/08/25 18:16:31;;;;;;;;;;;;;;;29.10;34.68;100009.97;5006131;28;20340;-74
2022/08/25 18:18:56;;;;;;;;;;;;;;;29.02;35.05;100015.97;5001757;28;20251;-78
2022/08/25 18:21:23;;;;;;;;;;;;;;;28.81;35.12;100006.97;5007527;28;20103;-78
2022/08/25 18:23:48;;;;;;;;;;;;;;;28.83;35.15;100005.00;5004297;28;20545;-74
2022/08/25 18:26:14;;;;;;;;;;;;;;;28.85;35.21;100003.03;5005347;28;19931;-87
2022/08/25 18:28:40;;;;;;;;;;;;;;;28.54;36.22;100007.38;5004766;28;19925;-78
2022/08/25 18:31:05;;;;;;;;;;;;;;;28.51;36.01;99997.69;5005824;28;19925;-78
2022/08/25 18:33:32;;;;;;;;;;;;;;;28.71;35.66;100000.63;5005867;28;20688;-86
2022/08/25 18:35:58;;;;;;;;;;;;;;;28.62;36.02;100004.94;5006265;28;19940;-75
2022/08/25 18:41:15;;;;;;;;;;;;;;;28.46;36.19;100010.72;4982783;28;20337;-75
2022/08/25 18:43:47;;;;;;;;;;;;;;;28.33;36.27;100008.16;5007722;28;19921;-82
2022/08/25 18:46:13;;;;;;;;;;;;;;;28.46;35.98;100010.72;5013196;28;19929;-84
2022/08/25 18:49:05;;;;;;;;;;;;;;;28.48;35.88;100003.38;5012490;28;19917;-88
2022/08/25 18:51:31;;;;;;;;;;;;;;;28.27;36.73;100005.06;5010319;28;20280;-77
2022/08/25 18:53:58;;;;;;;;;;;;;;;28.30;36.33;100000.28;5006421;28;19925;-75
2022/08/25 18:56:24;;;;;;;;;;;;;;;28.13;36.50;100003.47;5003176;28;19924;-73
2022/08/25 18:58:49;;;;;;;;;;;;;;;28.28;36.34;99996.84;4989123;28;19968;-78
2022/08/25 19:01:15;;;;;;;;;;;;;;;28.14;36.37;99997.09;5011360;28;20961;-76
2022/08/25 19:03:41;;;;;;;;;;;;;;;28.19;36.27;99997.59;4993071;28;19924;-80
2022/08/25 19:06:07;;;;;;;;;;;;;;;28.16;36.75;99997.84;5011098;28;20636;-87
2022/08/25 19:08:33;;;;;;;;;;;;;;;27.99;37.00;99991.94;5008637;28;19921;-79
2022/08/25 19:10:58;;;;;;;;;;;;;;;28.10;36.80;99995.66;4990855;28;19925;-77
2022/08/25 19:13:24;;;;;;;;;;;;;;;27.96;37.44;99994.91;5004878;28;19913;-78
2022/08/25 19:15:51;;;;;;;;;;;;;;;27.84;37.14;100001.28;5007812;28;20012;-74
2022/08/25 19:18:16;;;;;;;;;;;;;;;27.91;37.25;99997.09;4999263;28;20019;-87
2022/08/25 19:20:42;;;;;;;;;;;;;;;27.85;37.49;99999.41;5005593;28;19917;-78
2022/08/25 19:23:09;;;;;;;;;;;;;;;27.81;37.22;99997.91;5011034;28;19995;-75
2022/08/25 19:25:35;;;;;;;;;;;;;;;27.71;37.40;99995.09;5012975;28;19920;-75
2022/08/25 19:28:08;;;;;;;;;;;;;;;27.58;37.64;99998.75;5011816;28;19925;-76
2022/08/25 19:30:34;;;;;;;;;;;;;;;27.53;37.92;99998.25;5011272;28;19923;-84
2022/08/25 19:33:00;;;;;;;;;;;;;;;27.56;37.51;99998.00;5009886;28;19921;-76
2022/08/25 19:35:32;;;;;;;;;;;;;;;27.55;37.38;100006.19;5010623;28;21291;-74
2022/08/25 19:37:59;;;;;;;;;;;;;;;27.60;37.63;100009.38;5008061;28;20077;-75
2022/08/25 19:40:25;;;;;;;;;;;;;;;27.38;38.12;100010.19;4992777;28;19960;-77
2022/08/25 19:42:50;;;;;;;;;;;;;;;27.28;37.94;100015.44;5011488;28;19969;-73
2022/08/25 19:45:16;;;;;;;;;;;;;;;27.22;38.33;100013.19;5013818;28;20415;-78
2022/08/25 19:47:41;;;;;;;;;;;;;;;27.54;37.69;100017.97;4992816;28;19925;-80
2022/08/25 19:50:07;;;;;;;;;;;;;;;27.30;38.16;100018.88;5012561;28;19925;-83
2022/08/25 19:52:33;;;;;;;;;;;;;;;27.30;38.22;100015.28;5009002;28;19925;-78
2022/08/25 19:55:01;;;;;;;;;;;;;;;27.14;38.71;100019.13;4988140;28;19937;-80
2022/08/25 19:57:27;;;;;;;;;;;;;;;27.16;38.53;100027.97;5011364;28;19970;-75
2022/08/25 19:59:55;;;;;;;;;;;;;;;27.11;38.52;100023.88;4993532;28;19964;-80
2022/08/25 20:02:23;;;;;;;;;;;;;;;26.99;38.73;100027.50;5009846;28;20075;-75
2022/08/25 20:04:49;;;;;;;;;;;;;;;27.26;38.23;100030.00;5005219;28;19935;-80
2022/08/25 20:07:15;;;;;;;;;;;;;;;27.25;38.63;100025.56;5013729;28;19968;-85
2022/08/25 20:09:41;;;;;;;;;;;;;;;26.99;38.73;100024.81;5012506;28;19917;-85
2022/08/25 20:12:07;;;;;;;;;;;;;;;27.19;38.27;100024.19;5015932;28;19963;-75
2022/08/25 20:14:32;;;;;;;;;;;;;;;27.00;38.86;100031.94;5014316;28;19961;-82
2022/08/25 20:16:58;;;;;;;;;;;;;;;26.89;39.06;100028.19;5005251;28;20020;-81
2022/08/25 20:19:23;;;;;;;;;;;;;;;26.96;39.05;100028.59;5008696;28;20681;-82
2022/08/25 20:21:49;;;;;;;;;;;;;;;26.91;39.25;100023.56;5014811;28;20693;-73
2022/08/25 20:26:58;;;;;;;;;;;;;;;26.61;40.05;100017.75;5011319;28;19932;-74
2022/08/25 20:29:31;;;;;;;;;;;;;;;26.70;40.02;100023.31;5015060;28;19917;-73
2022/08/25 20:31:57;;;;;;;;;;;;;;;26.66;39.89;100018.25;5013446;28;19924;-73
2022/08/25 20:34:25;;;;;;;;;;;;;;;26.59;40.39;100019.69;4996612;28;19919;-74
2022/08/25 20:36:52;;;;;;;;;;;;;;;26.67;40.16;100026.25;5015413;28;19949;-74
2022/08/25 20:39:19;;;;;;;;;;;;;;;26.75;39.62;100033.75;5015797;28;19917;-81
2022/08/25 20:41:44;;;;;;;;;;;;;;;26.68;40.19;100030.63;5014115;28;19925;-75
2022/08/25 20:44:09;;;;;;;;;;;;;;;26.54;40.68;100036.16;5014837;28;20000;-73
2022/08/25 20:46:35;;;;;;;;;;;;;;;26.65;40.06;100030.00;5014341;28;19925;-74
2022/08/25 20:49:00;;;;;;;;;;;;;;;26.27;40.87;100037.16;4998903;28;19928;-73
2022/08/25 20:51:26;;;;;;;;;;;;;;;26.16;41.36;100039.75;5012726;28;20336;-73
2022/08/25 20:53:51;;;;;;;;;;;;;;;26.35;40.95;100042.00;5014532;28;20031;-74
2022/08/25 20:56:17;;;;;;;;;;;;;;;26.57;40.74;100046.69;5031539;28;19927;-74
2022/08/25 20:58:43;;;;;;;;;;;;;;;26.26;41.28;100048.03;5036256;28;19920;-73
2022/08/25 21:01:39;;;;;;;;;;;;;;;26.51;40.62;100049.81;5034819;28;19929;-76
2022/08/25 21:04:09;;;;;;;;;;;;;;;26.38;40.99;100048.97;5035723;28;19924;-75
2022/08/25 21:06:35;;;;;;;;;;;;;;;26.44;40.65;100049.41;5036989;28;20463;-78
2022/08/25 21:09:04;;;;;;;;;;;;;;;26.29;40.86;100048.69;5026962;28;19925;-73
2022/08/25 21:11:29;;;;;;;;;;;;;;;26.25;40.99;100049.88;5034375;28;20106;-73
2022/08/25 21:13:57;;;;;;;;;;;;;;;26.03;41.52;100049.66;5036084;28;20627;-75
2022/08/25 21:16:22;;;;;;;;;;;;;;;25.95;41.70;100060.09;5019448;28;19920;-73
2022/08/25 21:18:48;;;;;;;;;;;;;;;26.04;41.39;100057.63;5033982;28;19923;-76
2022/08/25 21:21:14;;;;;;;;;;;;;;;25.78;41.96;100053.16;5037857;28;19927;-79
2022/08/25 21:23:41;;;;;;;;;;;;;;;26.07;42.09;100059.22;5034566;28;19924;-73
2022/08/25 21:26:11;;;;;;;;;;;;;;;26.11;41.65;100056.22;5034723;28;20389;-78
2022/08/25 21:28:36;;;;;;;;;;;;;;;25.99;41.88;100057.09;5034501;28;20807;-76
2022/08/25 21:31:04;;;;;;;;;;;;;;;26.26;41.34;100061.47;5034697;28;20426;-74
2022/08/25 21:33:30;;;;;;;;;;;;;;;26.28;41.17;100055.00;5008705;28;20311;-72
2022/08/25 21:35:55;;;;;;;;;;;;;;;26.18;41.24;100059.34;5013127;28;19956;-76
2022/08/25 21:38:20;;;;;;;;;;;;;;;26.18;41.33;100055.78;5032238;28;19932;-74
2022/08/25 21:40:46;;;;;;;;;;;;;;;26.38;40.88;100059.75;5031508;28;19925;-75
2022/08/25 21:43:11;;;;;;;;;;;;;;;26.44;40.94;100053.94;5033766;28;19936;-79
2022/08/25 21:45:37;;;;;;;;;;;;;;;26.37;41.22;100052.66;5034525;28;20330;-80
2022/08/25 21:48:03;;;;;;;;;;;;;;;26.17;41.79;100052.22;5032381;28;19923;-73
2022/08/25 21:50:30;;;;;;;;;;;;;;;26.21;41.50;100037.59;5034170;28;19925;-72
2022/08/25 21:52:55;;;;;;;;;;;;;;;26.31;41.68;100041.34;5032669;28;20388;-74
2022/08/25 21:55:21;;;;;;;;;;;;;;;26.13;41.66;100039.97;5034648;28;19931;-72
2022/08/25 21:57:46;;;;;;;;;;;;;;;26.05;42.41;100035.13;5036102;28;19952;-73
2022/08/25 22:00:13;;;;;;;;;;;;;;;26.13;41.54;100039.09;5034781;28;20335;-73
2022/08/25 22:02:39;;;;;;;;;;;;;;;25.93;41.92;100040.53;5036157;28;19924;-83
2022/08/25 22:05:05;;;;;;;;;;;;;;;25.58;42.91;100028.50;5036351;28;19943;-77
2022/08/25 22:07:31;;;;;;;;;;;;;;;25.75;42.68;100029.19;5036709;28;19929;-73
2022/08/25 22:09:56;;;;;;;;;;;;;;;25.88;41.93;100025.56;5036663;28;20274;-74
2022/08/25 22:12:21;;;;;;;;;;;;;;;25.93;42.13;100029.75;5034386;28;19931;-80
2022/08/25 22:14:47;;;;;;;;;;;;;;;25.82;42.20;100020.56;5033165;28;20317;-73
2022/08/25 22:17:12;;;;;;;;;;;;;;;25.78;42.06;100023.56;5033434;28;19925;-73
2022/08/25 22:19:37;;;;;;;;;;;;;;;25.73;42.40;100021.25;5032125;28;19924;-74
2022/08/25 22:22:05;;;;;;;;;;;;;;;25.78;42.39;100012.81;5035680;28;20560;-72
2022/08/25 22:24:30;;;;;;;;;;;;;;;25.46;43.20;100018.63;5035132;28;19920;-80
2022/08/25 22:26:56;;;;;;;;;;;;;;;25.47;43.25;100031.97;5033962;28;20331;-79
2022/08/25 22:29:21;;;;;;;;;;;;;;;25.24;43.07;100017.41;5034892;28;20384;-78
2022/08/25 22:31:46;;;;;;;;;;;;;;;25.41;42.63;100018.94;5034203;28;20010;-78
2022/08/25 22:34:12;;;;;;;;;;;;;;;25.39;42.44;100017.31;5034325;28;20019;-76
2022/08/25 22:36:38;;;;;;;;;;;;;;;25.32;42.40;100014.19;5035091;28;19927;-74
2022/08/25 22:39:05;;;;;;;;;;;;;;;25.69;41.44;100006.28;5035158;28;19959;-72
2022/08/25 22:41:31;;;;;;;;;;;;;;;25.22;42.39;100011.25;5033710;28;19924;-74
2022/08/25 22:43:57;;;;;;;;;;;;;;;25.66;41.34;100003.78;5033906;28;19946;-74
2022/08/25 22:46:23;;;;;;;;;;;;;;;25.77;41.09;100003.06;5033615;28;19924;-74
2022/08/25 22:48:48;;;;;;;;;;;;;;;25.87;41.06;100005.03;5033186;28;20007;-82
2022/08/25 22:51:16;;;;;;;;;;;;;;;25.80;41.15;100003.72;5035990;28;20016;-77
2022/08/25 22:53:43;;;;;;;;;;;;;;;25.75;41.44;100005.84;5033142;28;19932;-75
2022/08/25 22:56:09;;;;;;;;;;;;;;;25.76;41.51;100010.28;5034472;28;19931;-81
2022/08/25 22:58:35;;;;;;;;;;;;;;;25.25;42.83;100007.50;5033655;28;19929;-74
2022/08/25 23:01:00;;;;;;;;;;;;;;;25.49;42.49;100005.81;5032335;28;19964;-78
2022/08/25 23:03:26;;;;;;;;;;;;;;;25.27;42.81;100011.81;5033728;28;20019;-78
2022/08/25 23:05:52;;;;;;;;;;;;;;;25.24;42.86;100005.81;5035995;28;19935;-75
2022/08/25 23:08:19;;;;;;;;;;;;;;;25.65;41.84;100000.25;5033652;28;20034;-76
2022/08/25 23:10:50;;;;;;;;;;;;;;;25.38;42.73;100000.34;5034685;28;20579;-75
2022/08/25 23:13:16;;;;;;;;;;;;;;;25.51;42.06;99997.66;5033208;28;19920;-75
2022/08/25 23:15:42;;;;;;;;;;;;;;;25.54;42.40;100000.13;5034881;28;19931;-79
2022/08/25 23:18:08;;;;;;;;;;;;;;;25.35;42.50;99981.72;5037372;28;19982;-88
2022/08/25 23:23:17;;;;;;;;;;;;;;;25.47;42.46;99994.34;5034508;28;20272;-76
2022/08/25 23:25:43;;;;;;;;;;;;;;;25.36;42.46;99988.84;5018243;28;19929;-78
2022/08/25 23:28:08;;;;;;;;;;;;;;;25.35;42.74;99987.09;5037723;28;19928;-81
2022/08/25 23:30:33;;;;;;;;;;;;;;;25.44;42.87;99989.16;5038619;28;20475;-79
2022/08/25 23:33:00;;;;;;;;;;;;;;;25.34;43.01;99990.75;5038026;28;19952;-80
2022/08/25 23:35:25;;;;;;;;;;;;;;;25.09;43.45;99993.34;5018541;28;20284;-75
2022/08/25 23:37:50;;;;;;;;;;;;;;;25.15;43.08;99988.44;5038181;28;19920;-74
2022/08/25 23:40:16;;;;;;;;;;;;;;;25.22;43.08;99994.28;5037176;28;19921;-72
2022/08/25 23:42:41;;;;;;;;;;;;;;;25.15;43.54;99993.81;5036809;28;20415;-76
2022/08/25 23:45:06;;;;;;;;;;;;;;;25.07;43.96;99993.44;5037621;28;20065;-76
2022/08/25 23:47:32;;;;;;;;;;;;;;;25.20;43.38;99989.00;5036983;28;19936;-80
2022/08/25 23:49:57;;;;;;;;;;;;;;;25.17;43.66;99988.31;5038470;28;19921;-74
2022/08/25 23:52:23;;;;;;;;;;;;;;;25.03;46.16;99990.13;5036188;28;19929;-75
2022/08/25 23:54:48;;;;;;;;;;;;;;;25.06;45.92;99991.75;5035018;28;20503;-77
2022/08/25 23:57:13;;;;;;;;;;;;;;;24.86;46.68;99998.41;5023980;28;19925;-78
2022/08/25 23:59:39;;;;;;;;;;;;;;;25.13;44.07;99992.19;5035846;28;20467;-80
